createdAt,value
2019-06-09T00:02:22.131Z,3.00
2019-06-09T00:04:49.527Z,2.70
2019-06-09T00:07:17.417Z,3.00
2019-06-09T00:09:48.267Z,2.50
2019-06-09T00:12:17.125Z,2.57
2019-06-09T00:14:46.939Z,2.80
2019-06-09T00:17:13.932Z,3.40
2019-06-09T00:19:41.327Z,3.10
2019-06-09T00:22:09.945Z,2.20
2019-06-09T00:24:37.951Z,2.83
2019-06-09T00:27:08.046Z,2.63
2019-06-09T00:29:34.569Z,2.77
2019-06-09T00:32:12.157Z,2.47
2019-06-09T00:34:37.713Z,2.90
2019-06-09T00:37:07.359Z,2.70
2019-06-09T00:39:34.371Z,2.87
2019-06-09T00:42:02.846Z,2.70
2019-06-09T00:44:30.355Z,2.63
2019-06-09T00:46:57.923Z,3.30
2019-06-09T00:49:27.952Z,2.30
2019-06-09T00:51:57.442Z,3.27
2019-06-09T00:54:24.711Z,3.13
2019-06-09T00:56:52.115Z,3.60
2019-06-09T00:59:20.875Z,3.60
2019-06-09T01:01:59.358Z,2.53
2019-06-09T01:04:18.483Z,2.63
2019-06-09T01:06:47.761Z,3.13
2019-06-09T01:09:16.915Z,2.77
2019-06-09T01:11:44.575Z,2.87
2019-06-09T01:14:12.808Z,2.90
2019-06-09T01:16:41.654Z,2.37
2019-06-09T01:19:09.617Z,2.57
2019-06-09T01:21:38.150Z,3.53
2019-06-09T01:24:07.462Z,3.73
2019-06-09T01:26:34.792Z,3.70
2019-06-09T01:29:02.187Z,2.67
2019-06-09T01:31:29.625Z,3.50
2019-06-09T01:33:57.293Z,3.27
2019-06-09T01:36:24.714Z,3.50
2019-06-09T01:38:52.356Z,2.57
2019-06-09T01:41:21.738Z,3.00
2019-06-09T01:43:49.002Z,3.20
2019-06-09T01:46:19.272Z,3.00
2019-06-09T01:48:47.343Z,3.20
2019-06-09T01:51:17.642Z,2.77
2019-06-09T01:53:45.028Z,2.87
2019-06-09T01:56:12.416Z,3.40
2019-06-09T01:58:39.819Z,2.83
2019-06-09T02:01:08.084Z,3.20
2019-06-09T02:03:37.244Z,2.47
2019-06-09T02:06:07.246Z,2.40
2019-06-09T02:08:34.163Z,2.87
2019-06-09T02:11:01.588Z,2.77
2019-06-09T02:13:28.979Z,3.03
2019-06-09T02:15:57.795Z,3.10
2019-06-09T02:18:25.450Z,2.63
2019-06-09T02:20:52.948Z,2.93
2019-06-09T02:23:21.715Z,2.63
2019-06-09T02:25:49.607Z,2.93
2019-06-09T02:28:18.872Z,2.50
2019-06-09T02:30:49.959Z,2.83
2019-06-09T02:33:23.224Z,2.97
2019-06-09T02:35:51.563Z,2.67
2019-06-09T02:38:14.047Z,2.27
2019-06-09T02:40:42.850Z,2.80
2019-06-09T02:43:12.212Z,3.20
2019-06-09T02:46:28.890Z,2.70
2019-06-09T02:48:54.259Z,2.70
2019-06-09T02:51:27.701Z,3.60
2019-06-09T02:53:52.139Z,2.53
2019-06-09T02:56:22.902Z,2.43
2019-06-09T02:58:51.589Z,2.80
2019-06-09T03:01:23.397Z,3.00
2019-06-09T03:04:01.673Z,3.03
2019-06-09T03:06:22.130Z,2.80
2019-06-09T03:08:47.430Z,3.00
2019-06-09T03:11:14.827Z,3.63
2019-06-09T03:13:44.504Z,3.60
2019-06-09T03:16:12.339Z,2.93
2019-06-09T03:18:46.507Z,2.53
2019-06-09T03:21:11.848Z,2.80
2019-06-09T03:23:43.590Z,2.90
2019-06-09T03:26:08.283Z,2.53
2019-06-09T03:28:39.802Z,3.53
2019-06-09T03:31:20.867Z,2.70
2019-06-09T03:34:49.709Z,3.27
2019-06-09T03:36:44.748Z,2.87
2019-06-09T03:38:46.302Z,3.40
2019-06-09T03:41:02.921Z,2.80
2019-06-09T03:43:39.389Z,3.00
2019-06-09T03:46:02.103Z,3.07
2019-06-09T03:48:32.734Z,3.10
2019-06-09T03:50:58.384Z,3.40
2019-06-09T03:53:28.885Z,3.23
2019-06-09T03:55:55.328Z,2.60
2019-06-09T03:58:27.797Z,2.90
2019-06-09T04:00:53.582Z,3.17
2019-06-09T04:03:25.302Z,2.60
2019-06-09T04:06:10.141Z,3.10
2019-06-09T04:08:23.872Z,3.10
2019-06-09T04:10:52.789Z,3.50
2019-06-09T04:13:18.411Z,3.20
2019-06-09T04:15:45.873Z,2.83
2019-06-09T04:18:13.268Z,3.23
2019-06-09T04:20:45.359Z,3.10
2019-06-09T04:23:12.281Z,3.17
2019-06-09T04:25:42.719Z,2.97
2019-06-09T04:28:11.948Z,3.30
2019-06-09T04:30:44.623Z,3.00
2019-06-09T04:33:07.719Z,2.90
2019-06-09T04:35:40.188Z,2.90
2019-06-09T04:38:04.756Z,3.20
2019-06-09T04:40:36.848Z,3.03
2019-06-09T04:43:02.811Z,3.20
2019-06-09T04:45:35.384Z,2.97
2019-06-09T04:48:02.948Z,3.03
2019-06-09T04:50:31.053Z,2.70
2019-06-09T04:53:02.476Z,2.80
2019-06-09T04:55:29.224Z,3.10
2019-06-09T04:57:57.307Z,3.30
2019-06-09T05:00:26.688Z,2.67
2019-06-09T05:02:54.082Z,3.67
2019-06-09T05:05:22.747Z,3.03
2019-06-09T05:08:02.449Z,2.87
2019-06-09T05:10:22.590Z,2.77
2019-06-09T05:12:52.441Z,3.10
2019-06-09T05:15:22.412Z,2.97
2019-06-09T05:17:48.856Z,3.10
2019-06-09T05:20:16.975Z,3.23
2019-06-09T05:22:48.665Z,3.37
2019-06-09T05:25:15.522Z,3.00
2019-06-09T05:27:47.849Z,3.20
2019-06-09T05:30:12.622Z,2.60
2019-06-09T05:32:44.087Z,3.33
2019-06-09T05:35:12.219Z,3.40
2019-06-09T05:37:43.423Z,3.63
2019-06-09T05:40:08.353Z,3.77
2019-06-09T05:42:36.269Z,3.20
2019-06-09T05:45:05.067Z,3.20
2019-06-09T05:47:34.186Z,3.17
2019-06-09T05:50:01.675Z,3.40
2019-06-09T05:52:31.896Z,3.30
2019-06-09T05:55:01.048Z,3.07
2019-06-09T05:57:28.247Z,3.10
2019-06-09T05:59:55.743Z,3.30
2019-06-09T06:02:23.155Z,3.10
2019-06-09T06:04:51.299Z,2.97
2019-06-09T06:07:24.506Z,3.00
2019-06-09T06:09:50.661Z,2.70
2019-06-09T06:12:17.387Z,3.17
2019-06-09T06:14:45.088Z,3.47
2019-06-09T06:17:12.526Z,3.20
2019-06-09T06:19:41.987Z,3.40
2019-06-09T06:22:11.263Z,3.37
2019-06-09T06:24:39.786Z,3.23
2019-06-09T06:27:07.592Z,3.00
2019-06-09T06:29:35.609Z,3.03
2019-06-09T06:32:03.288Z,3.30
2019-06-09T06:34:31.231Z,3.73
2019-06-09T06:37:01.093Z,3.30
2019-06-09T06:39:28.391Z,2.80
2019-06-09T06:41:55.786Z,2.97
2019-06-09T06:44:23.302Z,2.90
2019-06-09T06:47:00.048Z,2.90
2019-06-09T06:49:21.194Z,2.93
2019-06-09T06:51:48.860Z,2.90
2019-06-09T06:54:16.780Z,3.00
2019-06-09T06:56:45.193Z,2.90
2019-06-09T06:59:13.823Z,3.20
2019-06-09T07:01:43.016Z,3.37
2019-06-09T07:04:11.079Z,3.00
2019-06-09T07:06:40.136Z,2.80
2019-06-09T07:09:08.163Z,3.13
2019-06-09T07:11:35.565Z,3.00
2019-06-09T07:14:03.174Z,3.10
2019-06-09T07:16:31.361Z,3.40
2019-06-09T07:19:00.995Z,3.87
2019-06-09T07:21:31.041Z,3.27
2019-06-09T07:24:00.467Z,3.40
2019-06-09T07:26:27.459Z,3.90
2019-06-09T07:28:55.435Z,6.67
2019-06-09T07:31:22.833Z,10.57
2019-06-09T07:33:53.374Z,4.23
2019-06-09T07:36:21.204Z,3.07
2019-06-09T07:38:53.077Z,3.70
2019-06-09T07:41:17.967Z,3.57
2019-06-09T07:44:04.911Z,3.13
2019-06-09T07:46:32.717Z,3.20
2019-06-09T07:49:01.320Z,3.10
2019-06-09T07:51:31.424Z,3.47
2019-06-09T07:53:58.573Z,3.60
2019-06-09T07:56:26.227Z,2.90
2019-06-09T07:58:53.971Z,3.83
2019-06-09T08:01:21.879Z,3.40
2019-06-09T08:03:50.340Z,3.10
2019-06-09T08:06:18.582Z,2.90
2019-06-09T08:08:49.702Z,3.20
2019-06-09T08:11:15.215Z,3.00
2019-06-09T08:13:43.489Z,2.53
2019-06-09T08:16:11.931Z,3.80
2019-06-09T08:18:41.624Z,3.67
2019-06-09T08:21:08.622Z,3.33
2019-06-09T08:26:23.112Z,3.10
2019-06-09T08:28:54.963Z,2.73
2019-06-09T08:31:21.798Z,4.10
2019-06-09T08:33:53.662Z,3.70
2019-06-09T08:36:22.327Z,3.70
2019-06-09T08:39:02.556Z,3.43
2019-06-09T08:41:21.618Z,3.97
2019-06-09T08:43:52.414Z,3.37
2019-06-09T08:46:19.272Z,3.00
2019-06-09T08:48:47.897Z,4.03
2019-06-09T08:51:15.318Z,3.67
2019-06-09T08:53:43.912Z,3.33
2019-06-09T08:56:11.726Z,3.20
2019-06-09T08:58:40.821Z,3.10
2019-06-09T09:01:11.375Z,3.80
2019-06-09T09:03:37.698Z,3.00
2019-06-09T09:06:05.102Z,3.33
2019-06-09T09:08:32.504Z,3.20
2019-06-09T09:11:01.487Z,3.80
2019-06-09T09:13:31.853Z,3.77
2019-06-09T09:16:01.337Z,2.97
2019-06-09T09:18:31.183Z,4.27
2019-06-09T09:20:58.175Z,4.00
2019-06-09T09:23:25.589Z,3.87
2019-06-09T09:25:54.849Z,3.20
2019-06-09T09:28:22.350Z,3.90
2019-06-09T09:30:52.073Z,4.57
2019-06-09T09:33:20.952Z,5.50
2019-06-09T09:35:49.911Z,3.80
2019-06-09T09:38:17.727Z,4.50
2019-06-09T09:40:46.576Z,3.63
2019-06-09T09:43:14.383Z,3.67
2019-06-09T09:45:41.795Z,4.10
2019-06-09T09:48:11.404Z,4.30
2019-06-09T09:50:41.124Z,5.00
2019-06-09T09:53:08.155Z,3.80
2019-06-09T09:55:35.890Z,3.70
2019-06-09T09:58:03.292Z,4.17
2019-06-09T10:00:31.921Z,4.23
2019-06-09T10:03:02.708Z,4.07
2019-06-09T10:05:30.995Z,4.37
2019-06-09T10:07:58.354Z,4.27
2019-06-09T10:10:27.611Z,4.00
2019-06-09T10:12:55.525Z,4.13
2019-06-09T10:15:23.043Z,5.57
2019-06-09T10:17:52.864Z,4.30
2019-06-09T10:20:21.748Z,4.10
2019-06-09T10:22:51.031Z,3.87
2019-06-09T10:25:19.679Z,4.40
2019-06-09T10:27:48.246Z,3.63
2019-06-09T10:30:16.470Z,3.70
2019-06-09T10:32:44.027Z,3.67
2019-06-09T10:35:11.833Z,3.20
2019-06-09T10:37:39.227Z,3.77
2019-06-09T10:40:18.939Z,5.07
2019-06-09T10:42:37.617Z,4.37
2019-06-09T10:45:05.871Z,11.03
2019-06-09T10:47:33.345Z,5.17
2019-06-09T10:50:03.699Z,7.80
2019-06-09T10:52:29.971Z,5.50
2019-06-09T10:54:57.643Z,5.60
2019-06-09T10:57:25.163Z,3.57
2019-06-09T10:59:54.874Z,3.40
2019-06-09T11:02:21.995Z,3.50
2019-06-09T11:04:51.308Z,4.00
2019-06-09T11:07:20.786Z,2.83
2019-06-09T11:09:47.903Z,3.90
2019-06-09T11:12:15.323Z,3.47
2019-06-09T11:14:42.735Z,3.40
2019-06-09T11:17:11.582Z,3.53
2019-06-09T11:19:41.075Z,3.80
2019-06-09T11:22:08.381Z,3.70
2019-06-09T11:24:35.783Z,3.30
2019-06-09T11:27:08.442Z,3.80
2019-06-09T11:29:32.879Z,3.40
2019-06-09T11:32:03.071Z,3.07
2019-06-09T11:34:31.089Z,3.40
2019-06-09T11:36:58.722Z,3.30
2019-06-09T11:39:26.199Z,3.53
2019-06-09T11:41:54.797Z,3.20
2019-06-09T11:44:22.847Z,3.90
2019-06-09T11:46:50.699Z,3.90
2019-06-09T11:49:18.131Z,3.20
2019-06-09T11:51:45.559Z,3.57
2019-06-09T11:54:13.317Z,3.47
2019-06-09T11:56:41.439Z,3.73
2019-06-09T11:59:11.678Z,3.77
2019-06-09T12:01:38.433Z,3.30
2019-06-09T12:04:07.797Z,3.50
2019-06-09T12:06:35.132Z,3.90
2019-06-09T12:09:06.477Z,3.50
2019-06-09T12:11:32.707Z,4.00
2019-06-09T12:14:05.257Z,3.87
2019-06-09T12:16:37.742Z,3.90
2019-06-09T12:19:04.500Z,3.60
2019-06-09T12:21:29.943Z,3.83
2019-06-09T12:23:59.272Z,3.40
2019-06-09T12:26:27.403Z,3.87
2019-06-09T12:28:55.352Z,3.27
2019-06-09T12:31:23.119Z,3.23
2019-06-09T12:33:51.893Z,3.70
2019-06-09T12:36:21.829Z,4.27
2019-06-09T12:38:48.754Z,3.40
2019-06-09T12:41:27.966Z,3.83
2019-06-09T12:43:45.412Z,3.90
2019-06-09T12:46:12.890Z,3.93
2019-06-09T12:48:41.242Z,3.50
2019-06-09T12:51:11.856Z,3.53
2019-06-09T12:53:41.684Z,3.50
2019-06-09T12:56:10.608Z,4.50
2019-06-09T12:58:37.839Z,4.10
2019-06-09T13:01:06.830Z,3.53
2019-06-09T13:03:34.484Z,3.50
2019-06-09T13:06:01.979Z,3.63
2019-06-09T13:08:31.328Z,4.00
2019-06-09T13:11:00.415Z,3.70
2019-06-09T13:13:27.785Z,3.30
2019-06-09T13:15:55.259Z,4.20
2019-06-09T13:18:22.719Z,3.50
2019-06-09T13:20:51.340Z,3.73
2019-06-09T13:23:21.364Z,4.00
2019-06-09T13:25:51.170Z,3.40
2019-06-09T13:28:17.722Z,3.63
2019-06-09T13:30:45.191Z,3.83
2019-06-09T13:33:14.128Z,4.10
2019-06-09T13:36:01.736Z,3.70
2019-06-09T13:38:31.065Z,3.50
2019-06-09T13:41:00.490Z,4.10
2019-06-09T13:43:28.032Z,3.97
2019-06-09T13:45:55.436Z,3.93
2019-06-09T13:48:24.272Z,3.57
2019-06-09T13:50:51.903Z,3.90
2019-06-09T13:53:19.318Z,3.83
2019-06-09T13:55:46.721Z,3.67
2019-06-09T13:58:15.693Z,3.60
2019-06-09T14:00:43.175Z,3.80
2019-06-09T14:03:13.719Z,3.43
2019-06-09T14:05:40.021Z,3.40
2019-06-09T14:08:07.424Z,3.03
2019-06-09T14:10:36.122Z,3.60
2019-06-09T14:13:05.119Z,3.67
2019-06-09T14:15:32.751Z,3.70
2019-06-09T14:18:00.800Z,3.50
2019-06-09T14:20:28.365Z,3.60
2019-06-09T14:22:55.771Z,3.53
2019-06-09T14:25:23.168Z,3.70
2019-06-09T14:27:51.073Z,4.20
2019-06-09T14:30:22.604Z,3.20
2019-06-09T14:32:51.295Z,3.03
2019-06-09T14:35:19.892Z,3.27
2019-06-09T14:37:51.680Z,3.50
2019-06-09T14:40:19.831Z,3.90
2019-06-09T14:42:46.273Z,3.23
2019-06-09T14:45:17.437Z,3.50
2019-06-09T14:47:43.177Z,3.23
2019-06-09T14:50:13.746Z,4.30
2019-06-09T14:52:40.972Z,3.40
2019-06-09T14:55:11.641Z,4.03
2019-06-09T14:57:38.339Z,3.40
2019-06-09T15:00:06.064Z,3.90
2019-06-09T15:02:33.483Z,3.60
2019-06-09T15:05:00.918Z,3.47
2019-06-09T15:07:28.331Z,3.50
2019-06-09T15:09:55.741Z,3.60
2019-06-09T15:12:37.933Z,3.60
2019-06-09T15:14:52.367Z,3.40
2019-06-09T15:17:21.972Z,3.70
2019-06-09T15:19:51.184Z,3.40
2019-06-09T15:22:19.771Z,3.47
2019-06-09T15:24:47.587Z,3.20
2019-06-09T15:27:15.919Z,3.33
2019-06-09T15:29:43.523Z,3.40
2019-06-09T15:32:11.603Z,3.43
2019-06-09T15:34:41.683Z,3.37
2019-06-09T15:37:10.923Z,3.20
2019-06-09T15:39:40.896Z,3.23
2019-06-09T15:42:08.111Z,3.13
2019-06-09T15:44:37.319Z,3.10
2019-06-09T15:47:04.730Z,3.60
2019-06-09T15:49:32.411Z,3.80
2019-06-09T15:52:01.438Z,3.97
2019-06-09T15:54:29.050Z,3.13
2019-06-09T15:56:56.516Z,3.50
2019-06-09T15:59:25.002Z,3.10
2019-06-09T16:01:54.690Z,3.13
2019-06-09T16:04:24.009Z,3.23
2019-06-09T16:06:55.042Z,3.07
2019-06-09T16:09:25.619Z,3.33
2019-06-09T16:11:52.912Z,3.27
2019-06-09T16:14:22.688Z,2.80
2019-06-09T16:16:50.733Z,3.23
2019-06-09T16:19:18.910Z,3.30
2019-06-09T16:21:47.024Z,3.40
2019-06-09T16:24:26.270Z,3.80
2019-06-09T16:26:43.819Z,3.50
2019-06-09T16:29:11.822Z,3.67
2019-06-09T16:31:41.053Z,3.50
2019-06-09T16:34:08.694Z,3.70
2019-06-09T16:36:36.087Z,4.00
2019-06-09T16:39:06.031Z,3.33
2019-06-09T16:41:33.895Z,4.10
2019-06-09T16:44:01.658Z,3.90
2019-06-09T16:46:29.838Z,3.90
2019-06-09T16:49:01.178Z,3.90
2019-06-09T16:51:29.228Z,3.90
2019-06-09T16:53:58.180Z,3.47
2019-06-09T16:56:26.496Z,3.37
2019-06-09T16:58:53.948Z,3.57
2019-06-09T17:01:23.514Z,3.47
2019-06-09T17:03:52.218Z,3.77
2019-06-09T17:06:20.855Z,3.40
2019-06-09T17:08:52.063Z,3.30
2019-06-09T17:11:20.481Z,3.90
2019-06-09T17:13:59.939Z,4.20
2019-06-09T17:16:18.058Z,3.43
2019-06-09T17:18:46.087Z,3.73
2019-06-09T17:21:13.490Z,3.57
2019-06-09T17:23:41.502Z,3.40
2019-06-09T17:26:11.259Z,4.03
2019-06-09T17:28:43.261Z,4.03
2019-06-09T17:31:07.439Z,3.53
2019-06-09T17:33:36.130Z,4.07
2019-06-09T17:36:03.652Z,4.10
2019-06-09T17:38:32.900Z,4.17
2019-06-09T17:41:08.185Z,4.30
2019-06-09T17:43:31.559Z,4.20
2019-06-09T17:46:01.257Z,3.90
2019-06-09T17:48:29.248Z,3.93
2019-06-09T17:50:57.788Z,4.47
2019-06-09T17:53:25.895Z,3.60
2019-06-09T17:55:53.662Z,4.03
2019-06-09T17:58:22.874Z,4.37
2019-06-09T18:00:50.792Z,4.00
2019-06-09T18:03:22.910Z,4.07
2019-06-09T18:05:47.822Z,6.20
2019-06-09T18:08:15.222Z,5.60
2019-06-09T18:10:42.736Z,6.47
2019-06-09T18:13:11.119Z,5.20
2019-06-09T18:15:56.450Z,5.00
2019-06-09T18:18:08.503Z,4.40
2019-06-09T18:20:36.325Z,4.10
2019-06-09T18:23:04.922Z,4.20
2019-06-09T18:25:35.612Z,4.57
2019-06-09T18:28:03.234Z,3.90
2019-06-09T18:30:50.722Z,4.00
2019-06-09T18:33:11.327Z,4.03
2019-06-09T18:35:40.893Z,4.10
2019-06-09T18:38:07.223Z,3.90
2019-06-09T18:40:43.716Z,4.47
2019-06-09T18:43:12.048Z,4.23
2019-06-09T18:45:40.993Z,4.20
2019-06-09T18:48:11.905Z,4.67
2019-06-09T18:50:40.937Z,3.90
2019-06-09T18:53:07.602Z,3.87
2019-06-09T18:55:36.094Z,4.53
2019-06-09T18:58:05.030Z,4.80
2019-06-09T19:00:32.879Z,4.20
2019-06-09T19:03:01.496Z,3.97
2019-06-09T19:05:32.678Z,4.57
2019-06-09T19:07:58.302Z,4.07
2019-06-09T19:10:25.705Z,3.80
2019-06-09T19:12:53.506Z,4.00
2019-06-09T19:15:21.540Z,4.47
2019-06-09T19:17:50.741Z,3.90
2019-06-09T19:20:18.470Z,3.80
2019-06-09T19:22:45.882Z,3.90
2019-06-09T19:25:13.690Z,4.03
2019-06-09T19:27:43.750Z,4.00
2019-06-09T19:30:12.808Z,4.00
2019-06-09T19:32:43.687Z,3.87
2019-06-09T19:35:11.455Z,4.17
2019-06-09T19:37:41.983Z,4.60
2019-06-09T19:40:11.192Z,4.07
2019-06-09T19:42:39.588Z,4.23
2019-06-09T19:45:13.522Z,4.20
2019-06-09T19:47:39.334Z,3.50
2019-06-09T19:50:07.791Z,3.70
2019-06-09T19:52:35.975Z,4.20
2019-06-09T19:55:04.754Z,4.60
2019-06-09T19:57:34.772Z,4.07
2019-06-09T20:00:08.156Z,4.30
2019-06-09T20:02:31.575Z,4.20
2019-06-09T20:05:00.588Z,4.50
2019-06-09T20:07:28.162Z,4.53
2019-06-09T20:09:56.080Z,3.77
2019-06-09T20:12:24.227Z,4.40
2019-06-09T20:14:51.761Z,4.70
2019-06-09T20:17:21.312Z,4.67
2019-06-09T20:19:50.578Z,3.77
2019-06-09T20:22:17.979Z,3.80
2019-06-09T20:24:46.459Z,3.87
2019-06-09T20:27:16.666Z,4.33
2019-06-09T20:29:45.250Z,4.40
2019-06-09T20:32:15.377Z,4.07
2019-06-09T20:34:44.518Z,4.23
2019-06-09T20:37:11.478Z,3.83
2019-06-09T20:39:44.963Z,3.90
2019-06-09T20:42:11.340Z,4.10
2019-06-09T20:44:38.255Z,5.03
2019-06-09T20:47:07.126Z,4.47
2019-06-09T20:49:34.678Z,4.83
2019-06-09T20:52:02.098Z,4.07
2019-06-09T20:54:30.690Z,4.53
2019-06-09T20:57:00.982Z,3.30
2019-06-09T20:59:27.467Z,4.93
2019-06-09T21:01:54.969Z,5.50
2019-06-09T21:04:22.718Z,5.50
2019-06-09T21:06:52.587Z,5.37
2019-06-09T21:09:21.527Z,5.10
2019-06-09T21:11:49.624Z,4.57
2019-06-09T21:14:17.031Z,5.70
2019-06-09T21:16:46.431Z,4.83
2019-06-09T21:19:13.665Z,4.03
2019-06-09T21:22:01.448Z,4.67
2019-06-09T21:24:30.670Z,4.80
2019-06-09T21:27:00.658Z,4.30
2019-06-09T21:29:29.182Z,4.70
2019-06-09T21:31:56.646Z,4.60
2019-06-09T21:34:24.070Z,5.07
2019-06-09T21:36:56.681Z,5.47
2019-06-09T21:39:21.534Z,5.53
2019-06-09T21:41:50.002Z,6.07
2019-06-09T21:44:18.256Z,6.00
2019-06-09T21:46:46.018Z,6.27
2019-06-09T21:49:13.430Z,6.20
2019-06-09T21:51:41.413Z,6.30
2019-06-09T21:54:11.556Z,5.80
2019-06-09T21:56:40.933Z,5.37
2019-06-09T21:59:07.859Z,5.10
2019-06-09T22:01:35.495Z,4.53
2019-06-09T22:04:02.929Z,4.80
2019-06-09T22:06:31.736Z,4.13
2019-06-09T22:09:01.892Z,5.00
2019-06-09T22:11:28.519Z,5.07
2019-06-09T22:13:57.591Z,4.30
2019-06-09T22:16:25.172Z,5.53
2019-06-09T22:18:52.610Z,4.60
2019-06-09T22:21:22.054Z,4.47
2019-06-09T22:23:51.770Z,4.17
2019-06-09T22:26:19.034Z,5.60
2019-06-09T22:28:46.771Z,4.67
2019-06-09T22:31:14.327Z,4.60
2019-06-09T22:33:41.879Z,5.10
2019-06-09T22:36:11.408Z,5.00
2019-06-09T22:38:38.714Z,4.80
2019-06-09T22:41:06.119Z,5.70
2019-06-09T22:43:33.522Z,4.90
2019-06-09T22:46:01.430Z,5.77
2019-06-09T22:48:31.398Z,5.90
2019-06-09T22:50:59.300Z,5.70
2019-06-09T22:53:27.426Z,5.77
2019-06-09T22:55:56.092Z,6.73
2019-06-09T22:58:24.046Z,5.83
2019-06-09T23:00:54.316Z,5.40
2019-06-09T23:03:22.594Z,5.07
2019-06-09T23:05:53.228Z,5.93
2019-06-09T23:08:21.535Z,6.13
2019-06-09T23:10:50.653Z,5.40
2019-06-09T23:13:17.799Z,4.80
2019-06-09T23:15:45.262Z,5.30
2019-06-09T23:18:12.663Z,6.50
2019-06-09T23:20:41.050Z,7.50
2019-06-09T23:23:11.202Z,5.50
2019-06-09T23:25:40.875Z,5.40
2019-06-09T23:28:07.627Z,6.00
2019-06-09T23:30:35.064Z,5.33
2019-06-09T23:33:04.238Z,6.03
2019-06-09T23:35:31.787Z,5.27
2019-06-09T23:38:01.782Z,6.20
2019-06-09T23:40:28.542Z,6.13
2019-06-09T23:42:56.537Z,5.70
2019-06-09T23:45:24.219Z,5.63
2019-06-09T23:47:51.620Z,6.17
2019-06-09T23:50:20.852Z,5.00
2019-06-09T23:52:48.294Z,5.30
2019-06-09T23:55:17.011Z,6.40
2019-06-09T23:57:44.806Z,6.00
